sensor_id;sensor_type;location;lat;lon;timestamp;pressure;altitude;pressure_sealevel;temperature;humidity
58967;BME280;44744;51.894;5.080;2023-08-31T00:51:37;100912.36;;;12.69;85.91
58967;BME280;44744;51.894;5.080;2023-08-31T01:43:48;100917.97;;;12.89;88.12
58967;BME280;44744;51.894;5.080;2023-08-31T02:52:40;100925.25;;;13.01;88.01
58967;BME280;44744;51.894;5.080;2023-08-31T02:53:45;100928.38;;;13.02;88.21
58967;BME280;44744;51.894;5.080;2023-08-31T03:01:44;100948.42;;;13.07;88.45
58967;BME280;44744;51.894;5.080;2023-08-31T03:02:47;100943.39;;;13.08;88.39
58967;BME280;44744;51.894;5.080;2023-08-31T03:03:47;100944.20;;;13.09;88.45
58967;BME280;44744;51.894;5.080;2023-08-31T03:04:48;100940.80;;;13.10;88.57
58967;BME280;44744;51.894;5.080;2023-08-31T03:05:48;100938.23;;;13.11;88.58
58967;BME280;44744;51.894;5.080;2023-08-31T03:06:55;100934.66;;;13.12;88.45
58967;BME280;44744;51.894;5.080;2023-08-31T03:07:59;100931.06;;;13.12;88.38
58967;BME280;44744;51.894;5.080;2023-08-31T03:09:01;100933.31;;;13.13;88.54
58967;BME280;44744;51.894;5.080;2023-08-31T03:10:04;100927.58;;;13.14;88.45
58967;BME280;44744;51.894;5.080;2023-08-31T04:23:34;100937.30;;;12.55;89.17
58967;BME280;44744;51.894;5.080;2023-08-31T04:24:34;100937.39;;;12.54;89.30
58967;BME280;44744;51.894;5.080;2023-08-31T04:25:35;100937.61;;;12.53;89.36
58967;BME280;44744;51.894;5.080;2023-08-31T04:55:45;100978.60;;;12.38;90.00
58967;BME280;44744;51.894;5.080;2023-08-31T04:56:51;100976.81;;;12.38;89.89
58967;BME280;44744;51.894;5.080;2023-08-31T04:57:51;100978.78;;;12.38;89.89
58967;BME280;44744;51.894;5.080;2023-08-31T04:58:52;100978.91;;;12.39;89.91
58967;BME280;44744;51.894;5.080;2023-08-31T04:59:52;100979.42;;;12.39;89.89
58967;BME280;44744;51.894;5.080;2023-08-31T05:05:01;100981.32;;;12.40;89.96
58967;BME280;44744;51.894;5.080;2023-08-31T05:06:01;100987.14;;;12.41;89.95
58967;BME280;44744;51.894;5.080;2023-08-31T05:07:01;100988.35;;;12.41;90.06
58967;BME280;44744;51.894;5.080;2023-08-31T05:08:05;100986.73;;;12.41;90.04
58967;BME280;44744;51.894;5.080;2023-08-31T05:17:55;100995.60;;;12.39;90.13
58967;BME280;44744;51.894;5.080;2023-08-31T05:18:55;100995.81;;;12.38;90.23
58967;BME280;44744;51.894;5.080;2023-08-31T05:19:58;101000.89;;;12.39;90.19
58967;BME280;44744;51.894;5.080;2023-08-31T05:20:58;101000.68;;;12.40;90.18
58967;BME280;44744;51.894;5.080;2023-08-31T05:21:58;100999.13;;;12.39;90.19
58967;BME280;44744;51.894;5.080;2023-08-31T05:23:04;101003.36;;;12.39;90.35
58967;BME280;44744;51.894;5.080;2023-08-31T05:24:05;100997.80;;;12.38;90.24
58967;BME280;44744;51.894;5.080;2023-08-31T05:25:08;101004.14;;;12.38;90.38
58967;BME280;44744;51.894;5.080;2023-08-31T05:28:15;101009.00;;;12.40;90.36
58967;BME280;44744;51.894;5.080;2023-08-31T05:29:18;101006.85;;;12.40;90.48
58967;BME280;44744;51.894;5.080;2023-08-31T05:30:19;101007.86;;;12.41;90.36
58967;BME280;44744;51.894;5.080;2023-08-31T05:31:19;101012.09;;;12.42;90.45
58967;BME280;44744;51.894;5.080;2023-08-31T05:32:19;101011.00;;;12.42;90.42
58967;BME280;44744;51.894;5.080;2023-08-31T05:33:19;101012.00;;;12.43;90.35
58967;BME280;44744;51.894;5.080;2023-08-31T05:34:25;101012.40;;;12.42;90.25
58967;BME280;44744;51.894;5.080;2023-08-31T05:35:25;101012.52;;;12.43;90.44
58967;BME280;44744;51.894;5.080;2023-08-31T05:36:26;101013.23;;;12.43;90.54
58967;BME280;44744;51.894;5.080;2023-08-31T05:37:28;101015.58;;;12.43;90.39
58967;BME280;44744;51.894;5.080;2023-08-31T05:38:31;101011.31;;;12.43;90.40
58967;BME280;44744;51.894;5.080;2023-08-31T05:39:31;101013.79;;;12.43;90.30
58967;BME280;44744;51.894;5.080;2023-08-31T05:40:32;101012.70;;;12.43;90.43
58967;BME280;44744;51.894;5.080;2023-08-31T05:41:32;101009.77;;;12.42;90.51
58967;BME280;44744;51.894;5.080;2023-08-31T05:42:33;101012.00;;;12.43;90.58
58967;BME280;44744;51.894;5.080;2023-08-31T05:43:34;101010.08;;;12.42;90.84
58967;BME280;44744;51.894;5.080;2023-08-31T05:44:34;101013.25;;;12.43;90.86
58967;BME280;44744;51.894;5.080;2023-08-31T05:45:34;101016.90;;;12.44;90.69
58967;BME280;44744;51.894;5.080;2023-08-31T05:46:34;101017.27;;;12.44;90.73
58967;BME280;44744;51.894;5.080;2023-08-31T05:47:38;101017.14;;;12.43;90.68
58967;BME280;44744;51.894;5.080;2023-08-31T05:48:38;101018.53;;;12.43;90.70
58967;BME280;44744;51.894;5.080;2023-08-31T05:49:38;101021.02;;;12.43;90.66
58967;BME280;44744;51.894;5.080;2023-08-31T05:50:38;101026.64;;;12.44;90.80
58967;BME280;44744;51.894;5.080;2023-08-31T05:51:39;101026.81;;;12.44;90.75
58967;BME280;44744;51.894;5.080;2023-08-31T05:52:39;101028.77;;;12.44;90.76
58967;BME280;44744;51.894;5.080;2023-08-31T05:53:39;101026.59;;;12.45;90.98
58967;BME280;44744;51.894;5.080;2023-08-31T05:54:39;101029.73;;;12.46;90.99
58967;BME280;44744;51.894;5.080;2023-08-31T05:55:39;101032.15;;;12.47;90.78
58967;BME280;44744;51.894;5.080;2023-08-31T05:56:40;101029.93;;;12.49;90.99
58967;BME280;44744;51.894;5.080;2023-08-31T05:57:40;101029.60;;;12.48;91.13
58967;BME280;44744;51.894;5.080;2023-08-31T05:58:40;101027.94;;;12.50;90.84
58967;BME280;44744;51.894;5.080;2023-08-31T05:59:40;101027.18;;;12.50;91.13
58967;BME280;44744;51.894;5.080;2023-08-31T06:00:40;101028.38;;;12.51;91.07
58967;BME280;44744;51.894;5.080;2023-08-31T06:01:41;101028.14;;;12.52;91.18
58967;BME280;44744;51.894;5.080;2023-08-31T06:02:41;101032.88;;;12.53;91.19
58967;BME280;44744;51.894;5.080;2023-08-31T06:03:41;101032.10;;;12.54;91.14
58967;BME280;44744;51.894;5.080;2023-08-31T06:04:42;101033.15;;;12.54;91.20
58967;BME280;44744;51.894;5.080;2023-08-31T06:05:42;101033.09;;;12.55;91.21
58967;BME280;44744;51.894;5.080;2023-08-31T06:06:42;101035.37;;;12.56;91.09
58967;BME280;44744;51.894;5.080;2023-08-31T06:07:42;101035.87;;;12.56;91.16
58967;BME280;44744;51.894;5.080;2023-08-31T06:08:43;101037.25;;;12.57;91.34
58967;BME280;44744;51.894;5.080;2023-08-31T06:09:45;101040.63;;;12.57;91.51
58967;BME280;44744;51.894;5.080;2023-08-31T06:10:46;101042.70;;;12.57;91.36
58967;BME280;44744;51.894;5.080;2023-08-31T06:11:52;101042.64;;;12.59;91.16
58967;BME280;44744;51.894;5.080;2023-08-31T06:12:52;101043.13;;;12.59;91.33
58967;BME280;44744;51.894;5.080;2023-08-31T06:13:52;101044.67;;;12.60;91.26
58967;BME280;44744;51.894;5.080;2023-08-31T06:14:54;101047.97;;;12.61;91.28
58967;BME280;44744;51.894;5.080;2023-08-31T06:17:15;101050.91;;;12.63;91.34
58967;BME280;44744;51.894;5.080;2023-08-31T06:18:15;101053.15;;;12.64;91.28
58967;BME280;44744;51.894;5.080;2023-08-31T06:19:18;101053.64;;;12.64;91.38
58967;BME280;44744;51.894;5.080;2023-08-31T06:20:28;101058.03;;;12.65;91.35
58967;BME280;44744;51.894;5.080;2023-08-31T06:21:28;101056.48;;;12.65;91.31
58967;BME280;44744;51.894;5.080;2023-08-31T06:22:28;101055.72;;;12.66;91.53
58967;BME280;44744;51.894;5.080;2023-08-31T06:23:30;101058.92;;;12.65;91.58
58967;BME280;44744;51.894;5.080;2023-08-31T06:24:52;101058.07;;;12.65;91.44
58967;BME280;44744;51.894;5.080;2023-08-31T06:25:53;101057.31;;;12.66;91.29
58967;BME280;44744;51.894;5.080;2023-08-31T06:26:56;101062.84;;;12.65;91.49
58967;BME280;44744;51.894;5.080;2023-08-31T06:28:17;101066.52;;;12.66;91.55
58967;BME280;44744;51.894;5.080;2023-08-31T06:29:18;101061.68;;;12.67;91.47
58967;BME280;44744;51.894;5.080;2023-08-31T06:30:18;101060.43;;;12.67;91.65
58967;BME280;44744;51.894;5.080;2023-08-31T06:31:18;101056.85;;;12.67;91.65
58967;BME280;44744;51.894;5.080;2023-08-31T06:32:18;101061.92;;;12.68;91.45
58967;BME280;44744;51.894;5.080;2023-08-31T06:33:19;101056.92;;;12.69;91.60
58967;BME280;44744;51.894;5.080;2023-08-31T06:34:19;101059.37;;;12.70;91.46
58967;BME280;44744;51.894;5.080;2023-08-31T06:36:54;101056.06;;;12.72;91.70
58967;BME280;44744;51.894;5.080;2023-08-31T06:37:54;101053.05;;;12.71;91.64
58967;BME280;44744;51.894;5.080;2023-08-31T06:39:03;101056.15;;;12.73;91.64
58967;BME280;44744;51.894;5.080;2023-08-31T06:40:04;101056.43;;;12.74;91.82
58967;BME280;44744;51.894;5.080;2023-08-31T06:41:04;101055.81;;;12.76;91.77
58967;BME280;44744;51.894;5.080;2023-08-31T06:42:05;101054.01;;;12.76;91.79
58967;BME280;44744;51.894;5.080;2023-08-31T06:43:05;101059.60;;;12.78;91.85
58967;BME280;44744;51.894;5.080;2023-08-31T06:44:08;101059.67;;;12.79;91.71
58967;BME280;44744;51.894;5.080;2023-08-31T06:45:08;101059.56;;;12.81;91.94
58967;BME280;44744;51.894;5.080;2023-08-31T06:46:08;101059.68;;;12.82;91.91
58967;BME280;44744;51.894;5.080;2023-08-31T06:47:09;101061.36;;;12.84;91.65
58967;BME280;44744;51.894;5.080;2023-08-31T06:48:09;101060.77;;;12.85;91.94
58967;BME280;44744;51.894;5.080;2023-08-31T06:49:09;101058.92;;;12.86;91.93
58967;BME280;44744;51.894;5.080;2023-08-31T06:50:09;101062.23;;;12.87;91.88
58967;BME280;44744;51.894;5.080;2023-08-31T06:51:10;101062.66;;;12.89;91.96
58967;BME280;44744;51.894;5.080;2023-08-31T06:52:10;101061.16;;;12.90;92.06
58967;BME280;44744;51.894;5.080;2023-08-31T06:53:10;101057.98;;;12.90;92.26
58967;BME280;44744;51.894;5.080;2023-08-31T06:54:10;101062.50;;;12.91;92.21
58967;BME280;44744;51.894;5.080;2023-08-31T06:55:10;101060.66;;;12.92;92.13
58967;BME280;44744;51.894;5.080;2023-08-31T06:56:10;101062.52;;;12.94;92.40
58967;BME280;44744;51.894;5.080;2023-08-31T06:57:11;101064.92;;;12.95;92.06
58967;BME280;44744;51.894;5.080;2023-08-31T06:58:11;101066.29;;;12.96;91.98
58967;BME280;44744;51.894;5.080;2023-08-31T06:59:14;101066.60;;;12.96;91.98
58967;BME280;44744;51.894;5.080;2023-08-31T07:00:14;101070.30;;;12.97;92.03
58967;BME280;44744;51.894;5.080;2023-08-31T07:01:14;101069.04;;;12.97;92.04
58967;BME280;44744;51.894;5.080;2023-08-31T07:02:15;101069.55;;;12.98;92.07
58967;BME280;44744;51.894;5.080;2023-08-31T07:03:15;101066.27;;;12.99;92.20
58967;BME280;44744;51.894;5.080;2023-08-31T07:04:15;101071.16;;;13.01;92.21
58967;BME280;44744;51.894;5.080;2023-08-31T07:05:16;101072.65;;;13.02;92.12
58967;BME280;44744;51.894;5.080;2023-08-31T07:06:16;101077.52;;;13.04;92.24
58967;BME280;44744;51.894;5.080;2023-08-31T07:07:16;101078.32;;;13.05;92.25
58967;BME280;44744;51.894;5.080;2023-08-31T07:08:16;101078.92;;;13.07;92.17
58967;BME280;44744;51.894;5.080;2023-08-31T07:09:17;101079.23;;;13.08;92.16
58967;BME280;44744;51.894;5.080;2023-08-31T07:10:17;101082.66;;;13.10;92.31
58967;BME280;44744;51.894;5.080;2023-08-31T07:11:20;101084.03;;;13.11;92.34
58967;BME280;44744;51.894;5.080;2023-08-31T07:12:20;101083.38;;;13.13;92.33
58967;BME280;44744;51.894;5.080;2023-08-31T07:13:20;101083.43;;;13.14;92.30
58967;BME280;44744;51.894;5.080;2023-08-31T07:14:24;101082.29;;;13.16;92.51
58967;BME280;44744;51.894;5.080;2023-08-31T07:15:24;101082.71;;;13.18;92.41
58967;BME280;44744;51.894;5.080;2023-08-31T07:16:25;101085.37;;;13.21;92.34
58967;BME280;44744;51.894;5.080;2023-08-31T07:17:25;101086.50;;;13.22;92.60
58967;BME280;44744;51.894;5.080;2023-08-31T07:18:25;101090.39;;;13.25;92.64
58967;BME280;44744;51.894;5.080;2023-08-31T07:19:31;101090.56;;;13.28;92.67
58967;BME280;44744;51.894;5.080;2023-08-31T07:20:31;101089.85;;;13.31;92.85
58967;BME280;44744;51.894;5.080;2023-08-31T07:21:32;101091.30;;;13.34;92.83
58967;BME280;44744;51.894;5.080;2023-08-31T07:22:34;101092.77;;;13.37;92.82
58967;BME280;44744;51.894;5.080;2023-08-31T07:23:35;101092.41;;;13.39;92.78
58967;BME280;44744;51.894;5.080;2023-08-31T07:24:37;101096.36;;;13.42;92.91
58967;BME280;44744;51.894;5.080;2023-08-31T07:25:38;101102.02;;;13.45;92.90
58967;BME280;44744;51.894;5.080;2023-08-31T07:26:38;101097.81;;;13.47;92.86
58967;BME280;44744;51.894;5.080;2023-08-31T07:27:43;101097.64;;;13.49;92.75
58967;BME280;44744;51.894;5.080;2023-08-31T07:28:43;101100.15;;;13.52;92.91
58967;BME280;44744;51.894;5.080;2023-08-31T07:29:43;101101.58;;;13.55;93.01
58967;BME280;44744;51.894;5.080;2023-08-31T07:30:43;101105.08;;;13.58;93.47
58967;BME280;44744;51.894;5.080;2023-08-31T07:31:44;101101.38;;;13.60;93.49
58967;BME280;44744;51.894;5.080;2023-08-31T07:32:47;101101.33;;;13.64;93.69
58967;BME280;44744;51.894;5.080;2023-08-31T07:33:47;101103.34;;;13.66;93.79
58967;BME280;44744;51.894;5.080;2023-08-31T07:36:17;101108.75;;;13.74;93.45
58967;BME280;44744;51.894;5.080;2023-08-31T07:37:17;101105.69;;;13.77;93.52
58967;BME280;44744;51.894;5.080;2023-08-31T07:38:18;101103.30;;;13.81;93.76
58967;BME280;44744;51.894;5.080;2023-08-31T07:39:18;101106.56;;;13.83;93.80
58967;BME280;44744;51.894;5.080;2023-08-31T07:40:18;101103.06;;;13.85;93.71
58967;BME280;44744;51.894;5.080;2023-08-31T07:41:18;101105.52;;;13.88;93.89
58967;BME280;44744;51.894;5.080;2023-08-31T07:42:18;101100.40;;;13.90;93.68
58967;BME280;44744;51.894;5.080;2023-08-31T07:43:19;101102.35;;;13.93;93.58
58967;BME280;44744;51.894;5.080;2023-08-31T07:44:19;101102.21;;;13.95;93.65
58967;BME280;44744;51.894;5.080;2023-08-31T07:45:20;101099.15;;;13.98;93.68
58967;BME280;44744;51.894;5.080;2023-08-31T07:46:20;101100.41;;;14.01;93.65
58967;BME280;44744;51.894;5.080;2023-08-31T07:47:20;101098.45;;;14.04;93.66
58967;BME280;44744;51.894;5.080;2023-08-31T07:49:45;101094.79;;;14.11;93.83
58967;BME280;44744;51.894;5.080;2023-08-31T07:50:57;101096.02;;;14.13;94.03
58967;BME280;44744;51.894;5.080;2023-08-31T07:52:03;101096.34;;;14.17;93.85
58967;BME280;44744;51.894;5.080;2023-08-31T07:53:06;101093.86;;;14.20;93.64
58967;BME280;44744;51.894;5.080;2023-08-31T07:54:07;101092.45;;;14.22;93.83
58967;BME280;44744;51.894;5.080;2023-08-31T07:57:53;101092.92;;;14.33;93.73
58967;BME280;44744;51.894;5.080;2023-08-31T07:58:57;101094.31;;;14.37;93.66
58967;BME280;44744;51.894;5.080;2023-08-31T07:59:57;101095.56;;;14.39;93.64
58967;BME280;44744;51.894;5.080;2023-08-31T08:00:57;101095.58;;;14.42;93.63
58967;BME280;44744;51.894;5.080;2023-08-31T08:01:58;101102.16;;;14.44;93.79
58967;BME280;44744;51.894;5.080;2023-08-31T09:11:46;101136.46;;;16.43;83.29
58967;BME280;44744;51.894;5.080;2023-08-31T09:12:46;101138.99;;;16.43;83.07
58967;BME280;44744;51.894;5.080;2023-08-31T09:13:56;101140.16;;;16.42;82.72
58967;BME280;44744;51.894;5.080;2023-08-31T09:15:00;101135.77;;;16.41;82.78
58967;BME280;44744;51.894;5.080;2023-08-31T09:16:07;101137.23;;;16.40;82.97
58967;BME280;44744;51.894;5.080;2023-08-31T09:25:41;101134.14;;;16.74;81.49
58967;BME280;44744;51.894;5.080;2023-08-31T09:26:46;101128.02;;;16.80;81.15
58967;BME280;44744;51.894;5.080;2023-08-31T09:27:53;101133.39;;;16.86;81.11
58967;BME280;44744;51.894;5.080;2023-08-31T09:29:03;101132.43;;;16.92;78.78
58967;BME280;44744;51.894;5.080;2023-08-31T09:30:08;101123.64;;;16.97;76.43
58967;BME280;44744;51.894;5.080;2023-08-31T09:32:37;101127.23;;;17.06;78.13
58967;BME280;44744;51.894;5.080;2023-08-31T09:33:37;101126.60;;;17.12;78.89
58967;BME280;44744;51.894;5.080;2023-08-31T09:34:58;101131.79;;;17.17;78.79
58967;BME280;44744;51.894;5.080;2023-08-31T09:35:59;101134.33;;;17.23;78.41
58967;BME280;44744;51.894;5.080;2023-08-31T09:37:03;101138.51;;;17.25;77.28
58967;BME280;44744;51.894;5.080;2023-08-31T09:38:25;101140.27;;;17.25;75.99
58967;BME280;44744;51.894;5.080;2023-08-31T09:39:57;101137.75;;;17.25;75.74
58967;BME280;44744;51.894;5.080;2023-08-31T09:40:51;101142.96;;;17.25;74.52
58967;BME280;44744;51.894;5.080;2023-08-31T09:41:54;101145.89;;;17.21;73.79
58967;BME280;44744;51.894;5.080;2023-08-31T09:42:54;101145.29;;;17.18;73.38
58967;BME280;44744;51.894;5.080;2023-08-31T09:44:14;101151.55;;;17.13;73.65
58967;BME280;44744;51.894;5.080;2023-08-31T09:45:16;101149.20;;;17.06;73.91
58967;BME280;44744;51.894;5.080;2023-08-31T09:46:16;101150.45;;;17.02;74.08
58967;BME280;44744;51.894;5.080;2023-08-31T09:47:17;101148.58;;;16.98;73.94
58967;BME280;44744;51.894;5.080;2023-08-31T09:48:19;101149.52;;;16.95;73.73
58967;BME280;44744;51.894;5.080;2023-08-31T09:49:20;101150.60;;;16.93;74.18
58967;BME280;44744;51.894;5.080;2023-08-31T09:50:31;101150.80;;;16.93;74.79
58967;BME280;44744;51.894;5.080;2023-08-31T09:51:34;101148.30;;;16.95;75.27
58967;BME280;44744;51.894;5.080;2023-08-31T09:52:37;101150.14;;;16.97;75.13
58967;BME280;44744;51.894;5.080;2023-08-31T09:56:21;101146.51;;;16.92;73.63
58967;BME280;44744;51.894;5.080;2023-08-31T09:57:21;101148.63;;;16.91;73.10
58967;BME280;44744;51.894;5.080;2023-08-31T09:58:24;101147.21;;;16.90;73.75
58967;BME280;44744;51.894;5.080;2023-08-31T09:59:25;101143.19;;;16.92;73.63
58967;BME280;44744;51.894;5.080;2023-08-31T10:00:25;101144.45;;;16.94;73.38
58967;BME280;44744;51.894;5.080;2023-08-31T10:01:26;101139.39;;;16.97;73.43
58967;BME280;44744;51.894;5.080;2023-08-31T10:02:26;101142.31;;;17.01;73.39
58967;BME280;44744;51.894;5.080;2023-08-31T10:03:31;101143.38;;;17.05;73.35
58967;BME280;44744;51.894;5.080;2023-08-31T10:04:31;101143.67;;;17.11;73.40
58967;BME280;44744;51.894;5.080;2023-08-31T10:05:32;101141.68;;;17.16;72.95
58967;BME280;44744;51.894;5.080;2023-08-31T10:06:32;101139.99;;;17.21;72.94
58967;BME280;44744;51.894;5.080;2023-08-31T10:07:33;101141.50;;;17.27;71.90
58967;BME280;44744;51.894;5.080;2023-08-31T10:08:35;101143.11;;;17.32;71.84
58967;BME280;44744;51.894;5.080;2023-08-31T10:09:44;101141.70;;;17.38;71.41
58967;BME280;44744;51.894;5.080;2023-08-31T10:10:45;101142.98;;;17.43;71.86
58967;BME280;44744;51.894;5.080;2023-08-31T10:11:48;101141.52;;;17.47;72.22
58967;BME280;44744;51.894;5.080;2023-08-31T10:12:49;101145.19;;;17.51;71.00
58967;BME280;44744;51.894;5.080;2023-08-31T10:13:49;101141.50;;;17.54;67.61
58967;BME280;44744;51.894;5.080;2023-08-31T10:14:52;101145.81;;;17.54;66.46
58967;BME280;44744;51.894;5.080;2023-08-31T10:15:54;101143.50;;;17.52;65.99
58967;BME280;44744;51.894;5.080;2023-08-31T10:16:54;101148.12;;;17.50;65.56
58967;BME280;44744;51.894;5.080;2023-08-31T10:17:56;101150.83;;;17.48;66.36
58967;BME280;44744;51.894;5.080;2023-08-31T10:19:06;101145.52;;;17.45;66.67
58967;BME280;44744;51.894;5.080;2023-08-31T10:28:39;101150.60;;;17.41;66.64
58967;BME280;44744;51.894;5.080;2023-08-31T10:29:40;101152.64;;;17.43;66.30
58967;BME280;44744;51.894;5.080;2023-08-31T10:30:42;101150.16;;;17.42;64.52
58967;BME280;44744;51.894;5.080;2023-08-31T10:32:00;101150.62;;;17.41;63.65
58967;BME280;44744;51.894;5.080;2023-08-31T10:34:04;101150.98;;;17.38;63.35
58967;BME280;44744;51.894;5.080;2023-08-31T10:35:05;101149.45;;;17.37;62.70
58967;BME280;44744;51.894;5.080;2023-08-31T10:36:15;101149.57;;;17.34;63.02
58967;BME280;44744;51.894;5.080;2023-08-31T10:37:21;101155.95;;;17.30;63.39
58967;BME280;44744;51.894;5.080;2023-08-31T10:38:31;101155.20;;;17.26;63.46
58967;BME280;44744;51.894;5.080;2023-08-31T10:39:38;101159.13;;;17.21;63.01
58967;BME280;44744;51.894;5.080;2023-08-31T10:40:43;101155.16;;;17.15;63.22
58967;BME280;44744;51.894;5.080;2023-08-31T10:43:24;101154.19;;;17.09;64.31
58967;BME280;44744;51.894;5.080;2023-08-31T10:44:25;101153.10;;;17.09;64.55
58967;BME280;44744;51.894;5.080;2023-08-31T10:45:25;101152.52;;;17.10;64.91
58967;BME280;44744;51.894;5.080;2023-08-31T10:48:56;101143.99;;;17.16;65.42
58967;BME280;44744;51.894;5.080;2023-08-31T10:50:00;101144.27;;;17.22;65.71
58967;BME280;44744;51.894;5.080;2023-08-31T10:51:25;101141.23;;;17.29;64.39
58967;BME280;44744;51.894;5.080;2023-08-31T10:52:28;101142.40;;;17.36;63.47
58967;BME280;44744;51.894;5.080;2023-08-31T10:53:28;101144.94;;;17.40;63.58
58967;BME280;44744;51.894;5.080;2023-08-31T10:54:34;101146.89;;;17.45;63.11
58967;BME280;44744;51.894;5.080;2023-08-31T10:57:58;101153.96;;;17.53;62.56
58967;BME280;44744;51.894;5.080;2023-08-31T10:59:01;101150.78;;;17.55;60.70
58967;BME280;44744;51.894;5.080;2023-08-31T11:00:02;101149.11;;;17.53;60.18
58967;BME280;44744;51.894;5.080;2023-08-31T11:01:02;101148.95;;;17.53;60.97
58967;BME280;44744;51.894;5.080;2023-08-31T11:02:03;101149.42;;;17.56;60.57
58967;BME280;44744;51.894;5.080;2023-08-31T11:03:03;101149.05;;;17.58;60.61
58967;BME280;44744;51.894;5.080;2023-08-31T11:04:08;101150.38;;;17.62;61.28
58967;BME280;44744;51.894;5.080;2023-08-31T11:06:10;101150.14;;;17.72;61.30
58967;BME280;44744;51.894;5.080;2023-08-31T11:08:13;101148.11;;;17.82;61.43
58967;BME280;44744;51.894;5.080;2023-08-31T11:09:34;101148.67;;;17.83;60.77
58967;BME280;44744;51.894;5.080;2023-08-31T11:13:18;101150.36;;;17.80;59.82
58967;BME280;44744;51.894;5.080;2023-08-31T11:18:31;101149.20;;;17.99;60.56
58967;BME280;44744;51.894;5.080;2023-08-31T11:19:31;101149.91;;;18.04;59.30
58967;BME280;44744;51.894;5.080;2023-08-31T11:20:32;101151.86;;;18.06;59.52
58967;BME280;44744;51.894;5.080;2023-08-31T11:21:32;101151.42;;;18.09;59.00
58967;BME280;44744;51.894;5.080;2023-08-31T11:29:05;101148.54;;;18.17;57.20
58967;BME280;44744;51.894;5.080;2023-08-31T11:30:27;101149.62;;;18.19;57.67
58967;BME280;44744;51.894;5.080;2023-08-31T11:31:26;101152.08;;;18.21;57.19
58967;BME280;44744;51.894;5.080;2023-08-31T11:35:24;101145.91;;;18.35;58.15
58967;BME280;44744;51.894;5.080;2023-08-31T11:36:31;101147.65;;;18.40;57.56
58967;BME280;44744;51.894;5.080;2023-08-31T11:37:31;101146.60;;;18.44;57.37
58967;BME280;44744;51.894;5.080;2023-08-31T11:38:32;101149.15;;;18.48;57.59
58967;BME280;44744;51.894;5.080;2023-08-31T11:39:32;101149.14;;;18.53;57.36
58967;BME280;44744;51.894;5.080;2023-08-31T11:40:32;101149.95;;;18.55;56.75
58967;BME280;44744;51.894;5.080;2023-08-31T11:41:33;101148.82;;;18.58;56.90
58967;BME280;44744;51.894;5.080;2023-08-31T11:43:49;101149.85;;;18.61;56.04
58967;BME280;44744;51.894;5.080;2023-08-31T11:44:51;101148.66;;;18.60;56.75
58967;BME280;44744;51.894;5.080;2023-08-31T11:48:33;101151.06;;;18.68;56.51
58967;BME280;44744;51.894;5.080;2023-08-31T11:49:34;101149.30;;;18.70;55.93
58967;BME280;44744;51.894;5.080;2023-08-31T11:50:34;101146.15;;;18.71;56.23
58967;BME280;44744;51.894;5.080;2023-08-31T11:51:35;101151.30;;;18.74;56.35
58967;BME280;44744;51.894;5.080;2023-08-31T11:52:39;101149.90;;;18.75;56.16
58967;BME280;44744;51.894;5.080;2023-08-31T11:53:39;101149.33;;;18.78;57.50
58967;BME280;44744;51.894;5.080;2023-08-31T11:54:41;101152.41;;;18.82;57.03
58967;BME280;44744;51.894;5.080;2023-08-31T11:55:51;101150.21;;;18.84;55.97
58967;BME280;44744;51.894;5.080;2023-08-31T11:56:51;101155.14;;;18.88;56.68
58967;BME280;44744;51.894;5.080;2023-08-31T11:57:52;101154.42;;;18.92;56.02
58967;BME280;44744;51.894;5.080;2023-08-31T11:58:52;101152.01;;;18.96;55.48
58967;BME280;44744;51.894;5.080;2023-08-31T11:59:52;101149.15;;;18.97;55.54
58967;BME280;44744;51.894;5.080;2023-08-31T12:00:59;101150.08;;;18.99;54.65
58967;BME280;44744;51.894;5.080;2023-08-31T12:01:59;101149.27;;;18.98;54.60
58967;BME280;44744;51.894;5.080;2023-08-31T12:03:00;101147.61;;;18.98;54.77
58967;BME280;44744;51.894;5.080;2023-08-31T12:04:13;101145.39;;;18.99;53.39
58967;BME280;44744;51.894;5.080;2023-08-31T12:05:19;101148.61;;;18.99;53.82
58967;BME280;44744;51.894;5.080;2023-08-31T12:06:19;101145.46;;;19.01;53.34
58967;BME280;44744;51.894;5.080;2023-08-31T12:07:19;101150.16;;;19.02;54.00
58967;BME280;44744;51.894;5.080;2023-08-31T12:08:28;101149.02;;;19.05;53.27
58967;BME280;44744;51.894;5.080;2023-08-31T12:09:31;101144.16;;;19.07;52.52
58967;BME280;44744;51.894;5.080;2023-08-31T12:10:35;101146.22;;;19.08;52.17
58967;BME280;44744;51.894;5.080;2023-08-31T12:11:39;101140.42;;;19.09;51.48
58967;BME280;44744;51.894;5.080;2023-08-31T12:12:39;101142.54;;;19.07;52.26
58967;BME280;44744;51.894;5.080;2023-08-31T12:13:40;101146.71;;;19.07;52.56
58967;BME280;44744;51.894;5.080;2023-08-31T12:14:40;101147.89;;;19.08;53.47
58967;BME280;44744;51.894;5.080;2023-08-31T12:15:43;101145.73;;;19.10;53.78
58967;BME280;44744;51.894;5.080;2023-08-31T12:16:45;101144.65;;;19.12;54.29
58967;BME280;44744;51.894;5.080;2023-08-31T12:17:52;101143.58;;;19.16;53.98
58967;BME280;44744;51.894;5.080;2023-08-31T12:18:52;101149.60;;;19.21;54.53
58967;BME280;44744;51.894;5.080;2023-08-31T12:20:01;101149.81;;;19.23;52.82
58967;BME280;44744;51.894;5.080;2023-08-31T12:21:10;101154.16;;;19.22;52.77
58967;BME280;44744;51.894;5.080;2023-08-31T12:22:11;101158.74;;;19.21;53.64
58967;BME280;44744;51.894;5.080;2023-08-31T12:23:11;101156.53;;;19.22;54.80
58967;BME280;44744;51.894;5.080;2023-08-31T12:24:11;101156.21;;;19.24;54.46
58967;BME280;44744;51.894;5.080;2023-08-31T12:25:19;101155.70;;;19.23;53.66
58967;BME280;44744;51.894;5.080;2023-08-31T12:26:19;101155.67;;;19.21;53.42
58967;BME280;44744;51.894;5.080;2023-08-31T12:27:19;101157.09;;;19.20;53.25
58967;BME280;44744;51.894;5.080;2023-08-31T12:28:20;101161.17;;;19.16;54.04